<?xml version="1.0" encoding="UTF-8" standalone="no" ?>
<gpx xmlns="http://www.topografix.com/GPX/1/1" xmlns:xsi="http://www.w3.org/2001/XMLSchema-instance" xsi:schemaLocation="http://www.topografix.com/GPX/1/1 http://www.topografix.com/GPX/1/1/gpx.xsd" version="1.1" creator="VisuGPX - https://www.visugpx.com">
  <metadata>
    <name>test gps st orens</name>
    <desc><![CDATA[randonnée st orens]]></desc>
  </metadata>
  <trk>
    <name><![CDATA[03-MARS-11 17:36:50]]></name>
    <trkseg>
      <trkpt lat="43.54847" lon="1.53458">
        <ele>170.77</ele>
        <time>2011-03-03T15:42:07Z</time>
      </trkpt>
      <trkpt lat="43.54847" lon="1.53459">
        <ele>173.66</ele>
        <time>2011-03-03T15:42:33Z</time>
      </trkpt>
      <trkpt lat="43.54846" lon="1.53459">
        <ele>172.69</ele>
        <time>2011-03-03T15:42:53Z</time>
      </trkpt>
      <trkpt lat="43.54846" lon="1.53459">
        <ele>170.77</ele>
        <time>2011-03-03T15:43:20Z</time>
      </trkpt>
      <trkpt lat="43.54846" lon="1.53459">
        <ele>172.69</ele>
        <time>2011-03-03T15:43:21Z</time>
      </trkpt>
      <trkpt lat="43.54843" lon="1.53469">
        <ele>173.17</ele>
        <time>2011-03-03T15:43:44Z</time>
      </trkpt>
      <trkpt lat="43.54851" lon="1.53462">
        <ele>173.17</ele>
        <time>2011-03-03T15:44:02Z</time>
      </trkpt>
      <trkpt lat="43.5485" lon="1.53462">
        <ele>173.66</ele>
        <time>2011-03-03T15:44:29Z</time>
      </trkpt>
      <trkpt lat="43.54846" lon="1.53458">
        <ele>174.62</ele>
        <time>2011-03-03T15:44:54Z</time>
      </trkpt>
      <trkpt lat="43.54848" lon="1.53453">
        <ele>175.1</ele>
        <time>2011-03-03T15:45:25Z</time>
      </trkpt>
      <trkpt lat="43.54848" lon="1.53455">
        <ele>175.1</ele>
        <time>2011-03-03T15:45:50Z</time>
      </trkpt>
      <trkpt lat="43.54848" lon="1.53455">
        <ele>175.58</ele>
        <time>2011-03-03T15:46:21Z</time>
      </trkpt>
      <trkpt lat="43.54847" lon="1.53455">
        <ele>176.06</ele>
        <time>2011-03-03T15:46:49Z</time>
      </trkpt>
      <trkpt lat="43.54847" lon="1.53455">
        <ele>177.02</ele>
        <time>2011-03-03T15:47:15Z</time>
      </trkpt>
      <trkpt lat="43.54846" lon="1.53455">
        <ele>177.5</ele>
        <time>2011-03-03T15:47:36Z</time>
      </trkpt>
      <trkpt lat="43.54839" lon="1.53452">
        <ele>172.69</ele>
        <time>2011-03-03T15:47:45Z</time>
      </trkpt>
      <trkpt lat="43.54839" lon="1.53452">
        <ele>177.5</ele>
        <time>2011-03-03T15:47:46Z</time>
      </trkpt>
      <trkpt lat="43.54842" lon="1.53456">
        <ele>176.54</ele>
        <time>2011-03-03T16:01:08Z</time>
      </trkpt>
      <trkpt lat="43.54843" lon="1.53457">
        <ele>177.02</ele>
        <time>2011-03-03T16:01:09Z</time>
      </trkpt>
      <trkpt lat="43.54855" lon="1.5345">
        <ele>177.02</ele>
        <time>2011-03-03T16:01:36Z</time>
      </trkpt>
      <trkpt lat="43.5487" lon="1.53445">
        <ele>177.02</ele>
        <time>2011-03-03T16:02:00Z</time>
      </trkpt>
      <trkpt lat="43.54849" lon="1.53448">
        <ele>177.02</ele>
        <time>2011-03-03T16:02:03Z</time>
      </trkpt>
      <trkpt lat="43.54835" lon="1.53445">
        <ele>180.38</ele>
        <time>2011-03-03T16:02:18Z</time>
      </trkpt>
      <trkpt lat="43.54834" lon="1.53444">
        <ele>181.35</ele>
        <time>2011-03-03T16:02:20Z</time>
      </trkpt>
      <trkpt lat="43.54837" lon="1.53439">
        <ele>184.23</ele>
        <time>2011-03-03T16:02:30Z</time>
      </trkpt>
      <trkpt lat="43.54824" lon="1.53442">
        <ele>183.27</ele>
        <time>2011-03-03T16:02:57Z</time>
      </trkpt>
      <trkpt lat="43.5485" lon="1.53423">
        <ele>183.27</ele>
        <time>2011-03-03T16:08:35Z</time>
      </trkpt>
      <trkpt lat="43.54849" lon="1.53418">
        <ele>183.75</ele>
        <time>2011-03-03T16:08:37Z</time>
      </trkpt>
      <trkpt lat="43.54845" lon="1.53415">
        <ele>184.23</ele>
        <time>2011-03-03T16:08:41Z</time>
      </trkpt>
      <trkpt lat="43.54823" lon="1.53393">
        <ele>184.71</ele>
        <time>2011-03-03T16:09:00Z</time>
      </trkpt>
      <trkpt lat="43.54808" lon="1.53381">
        <ele>186.15</ele>
        <time>2011-03-03T16:09:15Z</time>
      </trkpt>
      <trkpt lat="43.54806" lon="1.53379">
        <ele>186.63</ele>
        <time>2011-03-03T16:09:17Z</time>
      </trkpt>
      <trkpt lat="43.54804" lon="1.53376">
        <ele>186.63</ele>
        <time>2011-03-03T16:09:19Z</time>
      </trkpt>
      <trkpt lat="43.54789" lon="1.53365">
        <ele>187.59</ele>
        <time>2011-03-03T16:09:33Z</time>
      </trkpt>
      <trkpt lat="43.5478" lon="1.53356">
        <ele>187.59</ele>
        <time>2011-03-03T16:09:48Z</time>
      </trkpt>
      <trkpt lat="43.54777" lon="1.53357">
        <ele>187.59</ele>
        <time>2011-03-03T16:09:52Z</time>
      </trkpt>
      <trkpt lat="43.54769" lon="1.53353">
        <ele>188.08</ele>
        <time>2011-03-03T16:09:58Z</time>
      </trkpt>
      <trkpt lat="43.54767" lon="1.5335">
        <ele>188.08</ele>
        <time>2011-03-03T16:10:00Z</time>
      </trkpt>
      <trkpt lat="43.54751" lon="1.53341">
        <ele>189.04</ele>
        <time>2011-03-03T16:10:18Z</time>
      </trkpt>
      <trkpt lat="43.54738" lon="1.53353">
        <ele>188.56</ele>
        <time>2011-03-03T16:10:34Z</time>
      </trkpt>
      <trkpt lat="43.5473" lon="1.53364">
        <ele>189.04</ele>
        <time>2011-03-03T16:10:49Z</time>
      </trkpt>
      <trkpt lat="43.54729" lon="1.53368">
        <ele>189.04</ele>
        <time>2011-03-03T16:10:53Z</time>
      </trkpt>
      <trkpt lat="43.54724" lon="1.53375">
        <ele>189.04</ele>
        <time>2011-03-03T16:11:06Z</time>
      </trkpt>
      <trkpt lat="43.5472" lon="1.53385">
        <ele>189.52</ele>
        <time>2011-03-03T16:11:21Z</time>
      </trkpt>
      <trkpt lat="43.5472" lon="1.53385">
        <ele>189.52</ele>
        <time>2011-03-03T16:12:01Z</time>
      </trkpt>
      <trkpt lat="43.5472" lon="1.53386">
        <ele>190.48</ele>
        <time>2011-03-03T16:12:30Z</time>
      </trkpt>
      <trkpt lat="43.5472" lon="1.53386">
        <ele>189.52</ele>
        <time>2011-03-03T16:13:03Z</time>
      </trkpt>
      <trkpt lat="43.54718" lon="1.53389">
        <ele>189.52</ele>
        <time>2011-03-03T16:13:27Z</time>
      </trkpt>
      <trkpt lat="43.54709" lon="1.53405">
        <ele>189.52</ele>
        <time>2011-03-03T16:13:44Z</time>
      </trkpt>
      <trkpt lat="43.54702" lon="1.53421">
        <ele>190</ele>
        <time>2011-03-03T16:13:56Z</time>
      </trkpt>
      <trkpt lat="43.54703" lon="1.53427">
        <ele>190</ele>
        <time>2011-03-03T16:14:00Z</time>
      </trkpt>
      <trkpt lat="43.54706" lon="1.53432">
        <ele>189.52</ele>
        <time>2011-03-03T16:14:04Z</time>
      </trkpt>
      <trkpt lat="43.54726" lon="1.53448">
        <ele>190</ele>
        <time>2011-03-03T16:14:23Z</time>
      </trkpt>
      <trkpt lat="43.54743" lon="1.53459">
        <ele>190.48</ele>
        <time>2011-03-03T16:14:38Z</time>
      </trkpt>
      <trkpt lat="43.54757" lon="1.53475">
        <ele>189.04</ele>
        <time>2011-03-03T16:14:53Z</time>
      </trkpt>
      <trkpt lat="43.54768" lon="1.53491">
        <ele>188.56</ele>
        <time>2011-03-03T16:15:07Z</time>
      </trkpt>
      <trkpt lat="43.54785" lon="1.53514">
        <ele>187.59</ele>
        <time>2011-03-03T16:15:22Z</time>
      </trkpt>
      <trkpt lat="43.548" lon="1.53535">
        <ele>187.11</ele>
        <time>2011-03-03T16:15:38Z</time>
      </trkpt>
      <trkpt lat="43.54817" lon="1.53557">
        <ele>186.63</ele>
        <time>2011-03-03T16:15:53Z</time>
      </trkpt>
      <trkpt lat="43.54836" lon="1.53581">
        <ele>185.67</ele>
        <time>2011-03-03T16:16:11Z</time>
      </trkpt>
      <trkpt lat="43.54852" lon="1.53603">
        <ele>186.63</ele>
        <time>2011-03-03T16:16:28Z</time>
      </trkpt>
      <trkpt lat="43.54858" lon="1.5362">
        <ele>186.63</ele>
        <time>2011-03-03T16:16:39Z</time>
      </trkpt>
      <trkpt lat="43.54857" lon="1.53625">
        <ele>186.63</ele>
        <time>2011-03-03T16:16:41Z</time>
      </trkpt>
      <trkpt lat="43.54855" lon="1.53644">
        <ele>187.59</ele>
        <time>2011-03-03T16:16:54Z</time>
      </trkpt>
      <trkpt lat="43.5485" lon="1.53648">
        <ele>187.59</ele>
        <time>2011-03-03T16:16:59Z</time>
      </trkpt>
      <trkpt lat="43.54852" lon="1.53656">
        <ele>187.59</ele>
        <time>2011-03-03T16:17:03Z</time>
      </trkpt>
      <trkpt lat="43.54855" lon="1.5367">
        <ele>187.11</ele>
        <time>2011-03-03T16:17:10Z</time>
      </trkpt>
      <trkpt lat="43.54857" lon="1.53706">
        <ele>187.11</ele>
        <time>2011-03-03T16:17:29Z</time>
      </trkpt>
      <trkpt lat="43.54867" lon="1.53729">
        <ele>185.67</ele>
        <time>2011-03-03T16:17:44Z</time>
      </trkpt>
      <trkpt lat="43.5488" lon="1.5376">
        <ele>184.23</ele>
        <time>2011-03-03T16:18:03Z</time>
      </trkpt>
      <trkpt lat="43.5489" lon="1.53789">
        <ele>182.79</ele>
        <time>2011-03-03T16:18:21Z</time>
      </trkpt>
      <trkpt lat="43.54902" lon="1.53818">
        <ele>180.87</ele>
        <time>2011-03-03T16:18:41Z</time>
      </trkpt>
      <trkpt lat="43.54914" lon="1.53845">
        <ele>179.42</ele>
        <time>2011-03-03T16:19:00Z</time>
      </trkpt>
      <trkpt lat="43.54918" lon="1.53872">
        <ele>179.42</ele>
        <time>2011-03-03T16:19:15Z</time>
      </trkpt>
      <trkpt lat="43.54925" lon="1.53903">
        <ele>178.94</ele>
        <time>2011-03-03T16:19:32Z</time>
      </trkpt>
      <trkpt lat="43.5491" lon="1.53919">
        <ele>178.46</ele>
        <time>2011-03-03T16:19:46Z</time>
      </trkpt>
      <trkpt lat="43.54901" lon="1.53929">
        <ele>177.98</ele>
        <time>2011-03-03T16:19:54Z</time>
      </trkpt>
      <trkpt lat="43.54899" lon="1.5393">
        <ele>177.5</ele>
        <time>2011-03-03T16:20:03Z</time>
      </trkpt>
      <trkpt lat="43.54896" lon="1.53933">
        <ele>177.98</ele>
        <time>2011-03-03T16:20:06Z</time>
      </trkpt>
      <trkpt lat="43.54884" lon="1.53942">
        <ele>176.54</ele>
        <time>2011-03-03T16:20:16Z</time>
      </trkpt>
      <trkpt lat="43.54879" lon="1.53953">
        <ele>176.54</ele>
        <time>2011-03-03T16:20:23Z</time>
      </trkpt>
      <trkpt lat="43.54863" lon="1.53969">
        <ele>175.58</ele>
        <time>2011-03-03T16:20:39Z</time>
      </trkpt>
      <trkpt lat="43.54845" lon="1.53993">
        <ele>176.54</ele>
        <time>2011-03-03T16:20:58Z</time>
      </trkpt>
      <trkpt lat="43.54841" lon="1.54002">
        <ele>176.06</ele>
        <time>2011-03-03T16:21:12Z</time>
      </trkpt>
      <trkpt lat="43.54826" lon="1.54027">
        <ele>176.54</ele>
        <time>2011-03-03T16:21:29Z</time>
      </trkpt>
      <trkpt lat="43.54814" lon="1.54054">
        <ele>177.02</ele>
        <time>2011-03-03T16:21:46Z</time>
      </trkpt>
      <trkpt lat="43.54802" lon="1.54088">
        <ele>177.5</ele>
        <time>2011-03-03T16:22:05Z</time>
      </trkpt>
      <trkpt lat="43.54796" lon="1.54114">
        <ele>176.54</ele>
        <time>2011-03-03T16:22:21Z</time>
      </trkpt>
      <trkpt lat="43.54783" lon="1.54153">
        <ele>176.06</ele>
        <time>2011-03-03T16:22:42Z</time>
      </trkpt>
      <trkpt lat="43.54772" lon="1.54184">
        <ele>176.54</ele>
        <time>2011-03-03T16:23:00Z</time>
      </trkpt>
      <trkpt lat="43.54761" lon="1.54215">
        <ele>177.5</ele>
        <time>2011-03-03T16:23:18Z</time>
      </trkpt>
      <trkpt lat="43.5475" lon="1.5424">
        <ele>177.98</ele>
        <time>2011-03-03T16:23:34Z</time>
      </trkpt>
      <trkpt lat="43.54752" lon="1.54251">
        <ele>177.02</ele>
        <time>2011-03-03T16:23:44Z</time>
      </trkpt>
      <trkpt lat="43.54768" lon="1.54264">
        <ele>174.62</ele>
        <time>2011-03-03T16:24:01Z</time>
      </trkpt>
      <trkpt lat="43.54771" lon="1.54266">
        <ele>174.62</ele>
        <time>2011-03-03T16:24:04Z</time>
      </trkpt>
      <trkpt lat="43.5478" lon="1.54271">
        <ele>173.17</ele>
        <time>2011-03-03T16:24:13Z</time>
      </trkpt>
      <trkpt lat="43.54784" lon="1.54275">
        <ele>172.21</ele>
        <time>2011-03-03T16:24:19Z</time>
      </trkpt>
      <trkpt lat="43.54802" lon="1.54283">
        <ele>171.25</ele>
        <time>2011-03-03T16:24:39Z</time>
      </trkpt>
      <trkpt lat="43.54798" lon="1.54281">
        <ele>171.73</ele>
        <time>2011-03-03T16:24:45Z</time>
      </trkpt>
      <trkpt lat="43.5478" lon="1.5427">
        <ele>173.17</ele>
        <time>2011-03-03T16:25:00Z</time>
      </trkpt>
      <trkpt lat="43.5476" lon="1.54256">
        <ele>176.06</ele>
        <time>2011-03-03T16:25:17Z</time>
      </trkpt>
      <trkpt lat="43.54753" lon="1.54249">
        <ele>177.02</ele>
        <time>2011-03-03T16:25:24Z</time>
      </trkpt>
      <trkpt lat="43.54747" lon="1.54245">
        <ele>178.94</ele>
        <time>2011-03-03T16:25:31Z</time>
      </trkpt>
      <trkpt lat="43.54737" lon="1.54266">
        <ele>178.94</ele>
        <time>2011-03-03T16:25:50Z</time>
      </trkpt>
      <trkpt lat="43.54737" lon="1.54266">
        <ele>179.42</ele>
        <time>2011-03-03T16:25:56Z</time>
      </trkpt>
      <trkpt lat="43.54718" lon="1.54299">
        <ele>180.38</ele>
        <time>2011-03-03T16:26:16Z</time>
      </trkpt>
      <trkpt lat="43.54707" lon="1.54322">
        <ele>180.38</ele>
        <time>2011-03-03T16:26:31Z</time>
      </trkpt>
      <trkpt lat="43.54698" lon="1.54347">
        <ele>181.35</ele>
        <time>2011-03-03T16:26:46Z</time>
      </trkpt>
      <trkpt lat="43.54686" lon="1.54372">
        <ele>182.31</ele>
        <time>2011-03-03T16:27:02Z</time>
      </trkpt>
      <trkpt lat="43.54672" lon="1.54401">
        <ele>183.27</ele>
        <time>2011-03-03T16:27:20Z</time>
      </trkpt>
      <trkpt lat="43.54662" lon="1.54425">
        <ele>185.19</ele>
        <time>2011-03-03T16:27:36Z</time>
      </trkpt>
      <trkpt lat="43.54647" lon="1.54454">
        <ele>186.15</ele>
        <time>2011-03-03T16:27:56Z</time>
      </trkpt>
      <trkpt lat="43.54641" lon="1.54479">
        <ele>186.63</ele>
        <time>2011-03-03T16:28:11Z</time>
      </trkpt>
      <trkpt lat="43.54641" lon="1.54507">
        <ele>187.59</ele>
        <time>2011-03-03T16:28:28Z</time>
      </trkpt>
      <trkpt lat="43.54656" lon="1.5453">
        <ele>186.15</ele>
        <time>2011-03-03T16:28:48Z</time>
      </trkpt>
      <trkpt lat="43.54657" lon="1.54532">
        <ele>186.15</ele>
        <time>2011-03-03T16:29:03Z</time>
      </trkpt>
      <trkpt lat="43.54655" lon="1.5453">
        <ele>186.15</ele>
        <time>2011-03-03T16:29:12Z</time>
      </trkpt>
      <trkpt lat="43.54651" lon="1.54525">
        <ele>186.63</ele>
        <time>2011-03-03T16:29:27Z</time>
      </trkpt>
      <trkpt lat="43.54651" lon="1.54525">
        <ele>186.63</ele>
        <time>2011-03-03T16:29:46Z</time>
      </trkpt>
      <trkpt lat="43.54654" lon="1.54528">
        <ele>170.29</ele>
        <time>2011-03-03T16:29:56Z</time>
      </trkpt>
      <trkpt lat="43.54654" lon="1.54528">
        <ele>195.77</ele>
        <time>2011-03-03T16:29:57Z</time>
      </trkpt>
      <trkpt lat="43.54654" lon="1.54528">
        <ele>187.11</ele>
        <time>2011-03-03T16:29:58Z</time>
      </trkpt>
      <trkpt lat="43.54654" lon="1.54528">
        <ele>186.63</ele>
        <time>2011-03-03T16:30:22Z</time>
      </trkpt>
      <trkpt lat="43.54654" lon="1.54528">
        <ele>186.63</ele>
        <time>2011-03-03T16:30:48Z</time>
      </trkpt>
      <trkpt lat="43.54654" lon="1.54528">
        <ele>186.63</ele>
        <time>2011-03-03T16:31:12Z</time>
      </trkpt>
      <trkpt lat="43.54654" lon="1.54528">
        <ele>186.15</ele>
        <time>2011-03-03T16:31:36Z</time>
      </trkpt>
      <trkpt lat="43.54654" lon="1.54528">
        <ele>183.27</ele>
        <time>2011-03-03T16:31:55Z</time>
      </trkpt>
      <trkpt lat="43.54654" lon="1.54528">
        <ele>186.63</ele>
        <time>2011-03-03T16:31:56Z</time>
      </trkpt>
      <trkpt lat="43.54654" lon="1.54528">
        <ele>190.48</ele>
        <time>2011-03-03T16:32:00Z</time>
      </trkpt>
      <trkpt lat="43.54654" lon="1.54528">
        <ele>187.11</ele>
        <time>2011-03-03T16:32:01Z</time>
      </trkpt>
      <trkpt lat="43.54654" lon="1.54528">
        <ele>187.11</ele>
        <time>2011-03-03T16:32:25Z</time>
      </trkpt>
      <trkpt lat="43.54654" lon="1.54528">
        <ele>183.75</ele>
        <time>2011-03-03T16:32:31Z</time>
      </trkpt>
      <trkpt lat="43.54654" lon="1.54528">
        <ele>187.59</ele>
        <time>2011-03-03T16:32:32Z</time>
      </trkpt>
      <trkpt lat="43.54654" lon="1.54528">
        <ele>186.63</ele>
        <time>2011-03-03T16:32:55Z</time>
      </trkpt>
      <trkpt lat="43.54654" lon="1.54527">
        <ele>187.11</ele>
        <time>2011-03-03T16:33:21Z</time>
      </trkpt>
      <trkpt lat="43.54654" lon="1.54527">
        <ele>188.56</ele>
        <time>2011-03-03T16:33:47Z</time>
      </trkpt>
      <trkpt lat="43.54654" lon="1.54528">
        <ele>187.11</ele>
        <time>2011-03-03T16:34:07Z</time>
      </trkpt>
      <trkpt lat="43.54654" lon="1.54528">
        <ele>186.63</ele>
        <time>2011-03-03T16:34:24Z</time>
      </trkpt>
      <trkpt lat="43.54654" lon="1.54528">
        <ele>186.15</ele>
        <time>2011-03-03T16:34:46Z</time>
      </trkpt>
      <trkpt lat="43.54654" lon="1.54528">
        <ele>187.59</ele>
        <time>2011-03-03T16:35:06Z</time>
      </trkpt>
      <trkpt lat="43.54654" lon="1.54528">
        <ele>183.75</ele>
        <time>2011-03-03T16:35:12Z</time>
      </trkpt>
      <trkpt lat="43.54654" lon="1.54528">
        <ele>187.11</ele>
        <time>2011-03-03T16:35:13Z</time>
      </trkpt>
      <trkpt lat="43.54654" lon="1.54528">
        <ele>186.63</ele>
        <time>2011-03-03T16:35:38Z</time>
      </trkpt>
      <trkpt lat="43.54654" lon="1.54528">
        <ele>185.67</ele>
        <time>2011-03-03T16:35:56Z</time>
      </trkpt>
      <trkpt lat="43.54655" lon="1.54527">
        <ele>188.08</ele>
        <time>2011-03-03T16:36:20Z</time>
      </trkpt>
      <trkpt lat="43.54656" lon="1.54527">
        <ele>186.63</ele>
        <time>2011-03-03T16:36:22Z</time>
      </trkpt>
      <trkpt lat="43.54656" lon="1.54527">
        <ele>182.79</ele>
        <time>2011-03-03T16:36:27Z</time>
      </trkpt>
      <trkpt lat="43.54656" lon="1.54527">
        <ele>187.11</ele>
        <time>2011-03-03T16:36:28Z</time>
      </trkpt>
      <trkpt lat="43.54656" lon="1.54527">
        <ele>180.38</ele>
        <time>2011-03-03T16:36:30Z</time>
      </trkpt>
      <trkpt lat="43.54656" lon="1.54527">
        <ele>183.75</ele>
        <time>2011-03-03T16:36:31Z</time>
      </trkpt>
      <trkpt lat="43.54656" lon="1.54527">
        <ele>187.59</ele>
        <time>2011-03-03T16:36:32Z</time>
      </trkpt>
      <trkpt lat="43.54656" lon="1.54527">
        <ele>197.69</ele>
        <time>2011-03-03T16:36:33Z</time>
      </trkpt>
      <trkpt lat="43.54656" lon="1.54527">
        <ele>178.46</ele>
        <time>2011-03-03T16:36:34Z</time>
      </trkpt>
      <trkpt lat="43.54656" lon="1.54528">
        <ele>188.56</ele>
        <time>2011-03-03T16:36:35Z</time>
      </trkpt>
      <trkpt lat="43.54656" lon="1.54528">
        <ele>191.44</ele>
        <time>2011-03-03T16:36:36Z</time>
      </trkpt>
      <trkpt lat="43.54656" lon="1.54528">
        <ele>187.59</ele>
        <time>2011-03-03T16:36:37Z</time>
      </trkpt>
      <trkpt lat="43.54656" lon="1.54528">
        <ele>186.63</ele>
        <time>2011-03-03T16:36:39Z</time>
      </trkpt>
    </trkseg>
  </trk>
</gpx>